Decoded Metar for KOLM (OLYMPIA in WA, USA) (IATA:OLM) | Meteo·Mobile Aviation Weather
aviador You're here:

KOLM Decoded Metar

OLYMPIA in WA, USA
Report Time2018-09-22 17:54:00
UTC Time2018-09-22 19:01:28
Flight Rules Old
Wind180° at 14 kt
W.Decomp.*RWY 17: 13.8 kt HW 2.2 kt LCW
RWY 08: 2.2 kt HW 13.8 kt RCW
W.Rank180° ranks 5
Current wind is above 180° avg. (7.3)
Visibility9999 m
Phenomena:N/A
Clouds:Few 012 Hf
Scattered 028 Hf
Broken 060 Hf
Expected CloudBase > 1,600 ft AGL from Temp-Dew spread
Ceiling6,000 ft
Temp18°C (ISA +3)
Dew Point14°C (78% RH)
AAT14.3°C
QNH1013 hPa
Density Alt801 ft
Elevation190 ft
Report Wrong Elevation
Raw Report
KOLM 221754Z 18014KT 10SM FEW012 SCT028 BKN060 18/14 A2991 RMK AO2
RAE29 SLP128 P0001 60004 T01780144 10178 20139 53006=

Extra information for KOLM:More info

Metar Taf Metar & Taf Last 4 Metars F.Rules Stats Wind Profile Meteogram Temp Stats Airport Information Weather charts Add Link Nearby VenuesMetar ALERT Operation Metar Decoded Social comments

AIRNAV info for KOLM